Terminal Aerodrome Forecast
Issued by NWS Upton, NY

Home | Current Version | Previous Version | Text Only | Print | Product List | Glossary On
Versions: 1 2 3 4 5 6 7 8 9 10 11 12 13 14 15 16 17 18 19 20 21 22 23 24 25 26 27 28
000
FTUS41 KOKX 072320
TAFBDR
TAF
KBDR 072320Z 0800/0824 18008KT P6SM SCT040 BKN250
     FM080100 21007KT P6SM SCT040 BKN250
     FM080600 21005KT 6SM BR SCT015 BKN250
     FM081400 25007KT P6SM VCTS BKN040CB=

USA.gov is the U.S. government's official web portal to all federal, state and local government web resources and services.